sensor_id;sensor_type;location;lat;lon;timestamp;P1;durP1;ratioP1;P2;durP2;ratioP2
68866;SDS011;56451;44.804;20.476;2023-05-29T00:01:15;7.00;;;5.20;;
68866;SDS011;56451;44.804;20.476;2023-05-29T00:03:46;10.35;;;5.57;;
68866;SDS011;56451;44.804;20.476;2023-05-29T00:06:13;7.53;;;5.70;;
68866;SDS011;56451;44.804;20.476;2023-05-29T00:08:39;8.27;;;5.80;;
68866;SDS011;56451;44.804;20.476;2023-05-29T00:11:05;9.93;;;6.53;;
68866;SDS011;56451;44.804;20.476;2023-05-29T00:13:31;9.68;;;6.22;;
68866;SDS011;56451;44.804;20.476;2023-05-29T00:15:57;9.85;;;7.00;;
68866;SDS011;56451;44.804;20.476;2023-05-29T00:18:24;10.02;;;6.45;;
68866;SDS011;56451;44.804;20.476;2023-05-29T00:20:51;9.47;;;6.70;;
68866;SDS011;56451;44.804;20.476;2023-05-29T00:23:18;8.90;;;6.63;;
68866;SDS011;56451;44.804;20.476;2023-05-29T00:25:44;8.20;;;6.30;;
68866;SDS011;56451;44.804;20.476;2023-05-29T00:28:10;8.70;;;6.25;;
68866;SDS011;56451;44.804;20.476;2023-05-29T00:30:38;10.25;;;6.88;;
68866;SDS011;56451;44.804;20.476;2023-05-29T00:33:05;9.10;;;6.57;;
68866;SDS011;56451;44.804;20.476;2023-05-29T00:35:31;9.25;;;6.40;;
68866;SDS011;56451;44.804;20.476;2023-05-29T00:37:57;9.52;;;6.90;;
68866;SDS011;56451;44.804;20.476;2023-05-29T00:40:25;8.65;;;6.75;;
68866;SDS011;56451;44.804;20.476;2023-05-29T00:42:51;11.00;;;6.93;;
68866;SDS011;56451;44.804;20.476;2023-05-29T00:45:17;9.43;;;6.80;;
68866;SDS011;56451;44.804;20.476;2023-05-29T00:47:43;10.05;;;6.78;;
68866;SDS011;56451;44.804;20.476;2023-05-29T00:50:11;10.35;;;7.07;;
68866;SDS011;56451;44.804;20.476;2023-05-29T00:52:39;8.95;;;6.45;;
68866;SDS011;56451;44.804;20.476;2023-05-29T00:55:07;11.60;;;7.32;;
68866;SDS011;56451;44.804;20.476;2023-05-29T00:57:34;9.80;;;7.13;;
68866;SDS011;56451;44.804;20.476;2023-05-29T01:00:02;13.50;;;7.53;;
68866;SDS011;56451;44.804;20.476;2023-05-29T01:02:31;10.15;;;7.28;;
68866;SDS011;56451;44.804;20.476;2023-05-29T01:04:57;11.88;;;8.40;;
68866;SDS011;56451;44.804;20.476;2023-05-29T01:07:23;12.65;;;8.00;;
68866;SDS011;56451;44.804;20.476;2023-05-29T01:09:49;10.93;;;8.00;;
68866;SDS011;56451;44.804;20.476;2023-05-29T01:15:41;23.48;;;18.52;;
68866;SDS011;56451;44.804;20.476;2023-05-29T01:29:29;26.77;;;20.27;;
68866;SDS011;56451;44.804;20.476;2023-05-29T01:31:58;19.77;;;14.30;;
68866;SDS011;56451;44.804;20.476;2023-05-29T01:34:27;17.47;;;12.60;;
68866;SDS011;56451;44.804;20.476;2023-05-29T01:36:53;20.42;;;14.98;;
68866;SDS011;56451;44.804;20.476;2023-05-29T01:39:19;20.23;;;14.13;;
68866;SDS011;56451;44.804;20.476;2023-05-29T01:41:47;20.05;;;12.32;;
68866;SDS011;56451;44.804;20.476;2023-05-29T01:44:13;15.98;;;10.70;;
68866;SDS011;56451;44.804;20.476;2023-05-29T01:46:41;11.77;;;8.23;;
68866;SDS011;56451;44.804;20.476;2023-05-29T01:49:08;10.98;;;7.93;;
68866;SDS011;56451;44.804;20.476;2023-05-29T01:51:36;10.68;;;7.68;;
68866;SDS011;56451;44.804;20.476;2023-05-29T01:54:03;8.00;;;6.28;;
68866;SDS011;56451;44.804;20.476;2023-05-29T01:56:29;6.05;;;5.10;;
68866;SDS011;56451;44.804;20.476;2023-05-29T01:58:57;7.83;;;5.00;;
68866;SDS011;56451;44.804;20.476;2023-05-29T02:01:24;6.03;;;4.72;;
68866;SDS011;56451;44.804;20.476;2023-05-29T02:03:50;7.43;;;5.40;;
68866;SDS011;56451;44.804;20.476;2023-05-29T02:06:16;7.32;;;4.63;;
68866;SDS011;56451;44.804;20.476;2023-05-29T02:08:43;7.07;;;4.75;;
68866;SDS011;56451;44.804;20.476;2023-05-29T02:11:09;8.97;;;5.47;;
68866;SDS011;56451;44.804;20.476;2023-05-29T02:13:35;10.65;;;7.40;;
68866;SDS011;56451;44.804;20.476;2023-05-29T02:16:01;13.02;;;7.15;;
68866;SDS011;56451;44.804;20.476;2023-05-29T02:18:27;9.38;;;5.72;;
68866;SDS011;56451;44.804;20.476;2023-05-29T02:20:53;12.35;;;6.22;;
68866;SDS011;56451;44.804;20.476;2023-05-29T02:23:21;12.07;;;7.47;;
68866;SDS011;56451;44.804;20.476;2023-05-29T02:25:50;12.77;;;9.38;;
68866;SDS011;56451;44.804;20.476;2023-05-29T02:28:16;13.90;;;9.80;;
68866;SDS011;56451;44.804;20.476;2023-05-29T02:30:42;12.68;;;9.45;;
68866;SDS011;56451;44.804;20.476;2023-05-29T02:33:08;12.35;;;9.75;;
68866;SDS011;56451;44.804;20.476;2023-05-29T02:35:34;13.63;;;8.93;;
68866;SDS011;56451;44.804;20.476;2023-05-29T02:38:00;15.15;;;9.30;;
68866;SDS011;56451;44.804;20.476;2023-05-29T02:40:26;14.98;;;9.63;;
68866;SDS011;56451;44.804;20.476;2023-05-29T02:42:52;17.27;;;10.40;;
68866;SDS011;56451;44.804;20.476;2023-05-29T02:45:17;17.70;;;11.00;;
68866;SDS011;56451;44.804;20.476;2023-05-29T02:47:43;14.23;;;10.33;;
68866;SDS011;56451;44.804;20.476;2023-05-29T02:50:09;15.70;;;10.70;;
68866;SDS011;56451;44.804;20.476;2023-05-29T02:52:36;17.15;;;11.00;;
68866;SDS011;56451;44.804;20.476;2023-05-29T02:55:05;15.25;;;10.25;;
68866;SDS011;56451;44.804;20.476;2023-05-29T02:57:31;16.93;;;10.60;;
68866;SDS011;56451;44.804;20.476;2023-05-29T02:59:57;18.80;;;10.82;;
68866;SDS011;56451;44.804;20.476;2023-05-29T03:02:24;17.45;;;11.25;;
68866;SDS011;56451;44.804;20.476;2023-05-29T03:04:51;16.73;;;11.95;;
68866;SDS011;56451;44.804;20.476;2023-05-29T03:07:18;19.90;;;14.07;;
68866;SDS011;56451;44.804;20.476;2023-05-29T03:09:44;23.93;;;14.27;;
68866;SDS011;56451;44.804;20.476;2023-05-29T03:12:10;21.85;;;14.80;;
68866;SDS011;56451;44.804;20.476;2023-05-29T03:14:36;25.50;;;13.80;;
68866;SDS011;56451;44.804;20.476;2023-05-29T03:17:06;22.88;;;14.70;;
68866;SDS011;56451;44.804;20.476;2023-05-29T03:19:33;24.60;;;13.90;;
68866;SDS011;56451;44.804;20.476;2023-05-29T03:21:59;24.33;;;14.05;;
68866;SDS011;56451;44.804;20.476;2023-05-29T03:24:25;22.35;;;13.48;;
68866;SDS011;56451;44.804;20.476;2023-05-29T03:26:51;21.10;;;13.70;;
68866;SDS011;56451;44.804;20.476;2023-05-29T03:29:17;17.85;;;13.15;;
68866;SDS011;56451;44.804;20.476;2023-05-29T03:31:44;19.77;;;13.03;;
68866;SDS011;56451;44.804;20.476;2023-05-29T03:34:12;24.38;;;13.75;;
68866;SDS011;56451;44.804;20.476;2023-05-29T03:36:46;18.60;;;13.07;;
68866;SDS011;56451;44.804;20.476;2023-05-29T03:39:12;19.33;;;12.52;;
68866;SDS011;56451;44.804;20.476;2023-05-29T03:41:39;18.48;;;12.95;;
68866;SDS011;56451;44.804;20.476;2023-05-29T03:44:05;19.63;;;12.47;;
68866;SDS011;56451;44.804;20.476;2023-05-29T03:46:31;19.48;;;12.05;;
68866;SDS011;56451;44.804;20.476;2023-05-29T03:48:58;18.33;;;12.57;;
68866;SDS011;56451;44.804;20.476;2023-05-29T03:51:24;18.23;;;12.67;;
68866;SDS011;56451;44.804;20.476;2023-05-29T03:53:53;22.30;;;12.23;;
68866;SDS011;56451;44.804;20.476;2023-05-29T03:56:19;16.17;;;11.57;;
68866;SDS011;56451;44.804;20.476;2023-05-29T03:58:45;16.13;;;11.30;;
68866;SDS011;56451;44.804;20.476;2023-05-29T04:01:12;14.20;;;10.52;;
68866;SDS011;56451;44.804;20.476;2023-05-29T04:03:38;19.27;;;11.40;;
68866;SDS011;56451;44.804;20.476;2023-05-29T04:06:05;18.58;;;10.82;;
68866;SDS011;56451;44.804;20.476;2023-05-29T04:08:32;13.32;;;9.57;;
68866;SDS011;56451;44.804;20.476;2023-05-29T04:10:58;12.65;;;9.50;;
68866;SDS011;56451;44.804;20.476;2023-05-29T04:13:24;12.30;;;9.03;;
68866;SDS011;56451;44.804;20.476;2023-05-29T04:15:50;10.90;;;7.82;;
68866;SDS011;56451;44.804;20.476;2023-05-29T04:18:19;12.82;;;8.48;;
68866;SDS011;56451;44.804;20.476;2023-05-29T04:20:45;9.93;;;7.63;;
68866;SDS011;56451;44.804;20.476;2023-05-29T04:23:13;9.77;;;7.13;;
68866;SDS011;56451;44.804;20.476;2023-05-29T04:25:39;10.57;;;7.10;;
68866;SDS011;56451;44.804;20.476;2023-05-29T04:28:05;10.40;;;6.60;;
68866;SDS011;56451;44.804;20.476;2023-05-29T04:30:31;8.18;;;6.75;;
68866;SDS011;56451;44.804;20.476;2023-05-29T04:32:59;11.88;;;6.65;;
68866;SDS011;56451;44.804;20.476;2023-05-29T04:35:26;11.73;;;6.07;;
68866;SDS011;56451;44.804;20.476;2023-05-29T04:38:00;9.23;;;6.30;;
68866;SDS011;56451;44.804;20.476;2023-05-29T04:40:30;8.90;;;6.70;;
68866;SDS011;56451;44.804;20.476;2023-05-29T04:42:57;9.95;;;6.68;;
68866;SDS011;56451;44.804;20.476;2023-05-29T04:45:27;8.60;;;5.70;;
68866;SDS011;56451;44.804;20.476;2023-05-29T04:47:53;8.80;;;5.93;;
68866;SDS011;56451;44.804;20.476;2023-05-29T04:50:21;8.15;;;5.90;;
68866;SDS011;56451;44.804;20.476;2023-05-29T04:52:54;12.77;;;6.30;;
68866;SDS011;56451;44.804;20.476;2023-05-29T04:55:20;10.02;;;5.68;;
68866;SDS011;56451;44.804;20.476;2023-05-29T04:57:46;9.27;;;6.13;;
68866;SDS011;56451;44.804;20.476;2023-05-29T05:00:13;8.37;;;5.57;;
68866;SDS011;56451;44.804;20.476;2023-05-29T05:02:41;8.85;;;6.03;;
68866;SDS011;56451;44.804;20.476;2023-05-29T05:05:12;8.70;;;5.88;;
68866;SDS011;56451;44.804;20.476;2023-05-29T05:07:38;9.82;;;6.35;;
68866;SDS011;56451;44.804;20.476;2023-05-29T05:10:04;9.40;;;5.63;;
68866;SDS011;56451;44.804;20.476;2023-05-29T05:12:32;8.05;;;6.05;;
68866;SDS011;56451;44.804;20.476;2023-05-29T05:15:00;9.10;;;5.95;;
68866;SDS011;56451;44.804;20.476;2023-05-29T05:17:27;9.52;;;6.45;;
68866;SDS011;56451;44.804;20.476;2023-05-29T05:19:53;7.90;;;5.80;;
68866;SDS011;56451;44.804;20.476;2023-05-29T05:22:19;8.55;;;5.80;;
68866;SDS011;56451;44.804;20.476;2023-05-29T05:24:48;9.32;;;5.60;;
68866;SDS011;56451;44.804;20.476;2023-05-29T05:27:14;7.85;;;5.65;;
68866;SDS011;56451;44.804;20.476;2023-05-29T05:29:40;6.87;;;4.60;;
68866;SDS011;56451;44.804;20.476;2023-05-29T05:32:06;6.85;;;5.13;;
68866;SDS011;56451;44.804;20.476;2023-05-29T05:34:32;10.48;;;5.20;;
68866;SDS011;56451;44.804;20.476;2023-05-29T05:36:58;9.35;;;5.15;;
68866;SDS011;56451;44.804;20.476;2023-05-29T05:39:24;6.83;;;4.73;;
68866;SDS011;56451;44.804;20.476;2023-05-29T05:41:51;6.60;;;4.25;;
68866;SDS011;56451;44.804;20.476;2023-05-29T05:44:33;9.23;;;6.10;;
68866;SDS011;56451;44.804;20.476;2023-05-29T05:47:06;12.68;;;7.00;;
68866;SDS011;56451;44.804;20.476;2023-05-29T05:49:33;8.02;;;5.38;;
68866;SDS011;56451;44.804;20.476;2023-05-29T05:51:59;7.30;;;5.43;;
68866;SDS011;56451;44.804;20.476;2023-05-29T05:54:25;9.55;;;6.35;;
68866;SDS011;56451;44.804;20.476;2023-05-29T05:56:51;12.93;;;6.88;;
68866;SDS011;56451;44.804;20.476;2023-05-29T05:59:18;7.95;;;6.25;;
68866;SDS011;56451;44.804;20.476;2023-05-29T06:01:45;7.60;;;6.07;;
68866;SDS011;56451;44.804;20.476;2023-05-29T06:04:11;8.68;;;6.40;;
68866;SDS011;56451;44.804;20.476;2023-05-29T06:06:37;9.27;;;5.55;;
68866;SDS011;56451;44.804;20.476;2023-05-29T06:09:03;8.73;;;4.82;;
68866;SDS011;56451;44.804;20.476;2023-05-29T06:11:30;8.02;;;4.65;;
68866;SDS011;56451;44.804;20.476;2023-05-29T06:13:58;7.23;;;4.50;;
68866;SDS011;56451;44.804;20.476;2023-05-29T06:16:28;7.65;;;4.28;;
68866;SDS011;56451;44.804;20.476;2023-05-29T06:18:54;6.10;;;4.72;;
68866;SDS011;56451;44.804;20.476;2023-05-29T06:21:20;7.85;;;5.10;;
68866;SDS011;56451;44.804;20.476;2023-05-29T06:23:54;7.13;;;5.30;;
68866;SDS011;56451;44.804;20.476;2023-05-29T06:26:21;4.97;;;4.35;;
68866;SDS011;56451;44.804;20.476;2023-05-29T06:28:48;6.78;;;4.72;;
68866;SDS011;56451;44.804;20.476;2023-05-29T06:31:15;6.53;;;4.60;;
68866;SDS011;56451;44.804;20.476;2023-05-29T06:33:41;6.93;;;5.40;;
68866;SDS011;56451;44.804;20.476;2023-05-29T06:36:08;7.60;;;5.37;;
68866;SDS011;56451;44.804;20.476;2023-05-29T06:38:35;10.20;;;5.47;;
68866;SDS011;56451;44.804;20.476;2023-05-29T06:41:01;7.63;;;5.85;;
68866;SDS011;56451;44.804;20.476;2023-05-29T06:43:28;7.57;;;5.68;;
68866;SDS011;56451;44.804;20.476;2023-05-29T06:45:56;10.85;;;5.53;;
68866;SDS011;56451;44.804;20.476;2023-05-29T06:48:23;6.87;;;5.43;;
68866;SDS011;56451;44.804;20.476;2023-05-29T06:50:49;10.63;;;5.55;;
68866;SDS011;56451;44.804;20.476;2023-05-29T06:53:35;8.55;;;5.57;;
68866;SDS011;56451;44.804;20.476;2023-05-29T06:56:01;6.55;;;5.30;;
68866;SDS011;56451;44.804;20.476;2023-05-29T06:58:29;8.85;;;5.78;;
68866;SDS011;56451;44.804;20.476;2023-05-29T07:00:56;7.40;;;5.47;;
68866;SDS011;56451;44.804;20.476;2023-05-29T07:03:51;11.35;;;6.03;;
68866;SDS011;56451;44.804;20.476;2023-05-29T07:06:18;9.40;;;5.53;;
68866;SDS011;56451;44.804;20.476;2023-05-29T07:08:45;9.30;;;6.45;;
68866;SDS011;56451;44.804;20.476;2023-05-29T07:11:12;10.73;;;5.63;;
68866;SDS011;56451;44.804;20.476;2023-05-29T07:13:38;8.33;;;5.97;;
68866;SDS011;56451;44.804;20.476;2023-05-29T07:16:04;9.60;;;6.40;;
68866;SDS011;56451;44.804;20.476;2023-05-29T07:18:34;10.25;;;5.95;;
68866;SDS011;56451;44.804;20.476;2023-05-29T07:21:01;13.98;;;6.35;;
68866;SDS011;56451;44.804;20.476;2023-05-29T07:23:29;11.70;;;6.30;;
68866;SDS011;56451;44.804;20.476;2023-05-29T07:25:56;12.13;;;5.77;;
68866;SDS011;56451;44.804;20.476;2023-05-29T07:28:24;12.63;;;5.95;;
68866;SDS011;56451;44.804;20.476;2023-05-29T07:30:51;10.38;;;6.35;;
68866;SDS011;56451;44.804;20.476;2023-05-29T07:33:17;12.27;;;6.35;;
68866;SDS011;56451;44.804;20.476;2023-05-29T07:35:44;10.15;;;6.93;;
68866;SDS011;56451;44.804;20.476;2023-05-29T07:38:10;11.07;;;5.90;;
68866;SDS011;56451;44.804;20.476;2023-05-29T07:40:38;9.85;;;6.38;;
68866;SDS011;56451;44.804;20.476;2023-05-29T07:43:04;17.08;;;6.45;;
68866;SDS011;56451;44.804;20.476;2023-05-29T07:45:50;9.25;;;6.25;;
68866;SDS011;56451;44.804;20.476;2023-05-29T07:48:16;8.70;;;6.35;;
68866;SDS011;56451;44.804;20.476;2023-05-29T07:50:42;11.97;;;6.07;;
68866;SDS011;56451;44.804;20.476;2023-05-29T07:53:09;12.68;;;6.75;;
68866;SDS011;56451;44.804;20.476;2023-05-29T07:55:37;12.80;;;6.32;;
68866;SDS011;56451;44.804;20.476;2023-05-29T07:58:04;9.48;;;6.00;;
68866;SDS011;56451;44.804;20.476;2023-05-29T08:00:30;7.90;;;6.03;;
68866;SDS011;56451;44.804;20.476;2023-05-29T08:02:56;11.57;;;6.67;;
68866;SDS011;56451;44.804;20.476;2023-05-29T08:05:41;12.55;;;7.03;;
68866;SDS011;56451;44.804;20.476;2023-05-29T08:08:11;11.27;;;6.60;;
68866;SDS011;56451;44.804;20.476;2023-05-29T08:10:38;9.38;;;6.53;;
68866;SDS011;56451;44.804;20.476;2023-05-29T08:13:05;13.32;;;7.35;;
68866;SDS011;56451;44.804;20.476;2023-05-29T08:15:33;8.33;;;5.80;;
68866;SDS011;56451;44.804;20.476;2023-05-29T08:18:00;8.48;;;6.68;;
68866;SDS011;56451;44.804;20.476;2023-05-29T08:20:26;10.55;;;7.28;;
68866;SDS011;56451;44.804;20.476;2023-05-29T08:22:52;12.05;;;8.80;;
68866;SDS011;56451;44.804;20.476;2023-05-29T08:25:18;12.82;;;7.65;;
68866;SDS011;56451;44.804;20.476;2023-05-29T08:27:44;12.00;;;7.40;;
68866;SDS011;56451;44.804;20.476;2023-05-29T08:30:11;11.93;;;7.75;;
68866;SDS011;56451;44.804;20.476;2023-05-29T08:32:38;11.20;;;7.10;;
68866;SDS011;56451;44.804;20.476;2023-05-29T08:35:04;10.30;;;7.07;;
68866;SDS011;56451;44.804;20.476;2023-05-29T08:37:30;13.45;;;8.02;;
68866;SDS011;56451;44.804;20.476;2023-05-29T08:39:57;8.80;;;7.07;;
68866;SDS011;56451;44.804;20.476;2023-05-29T08:42:26;13.73;;;7.38;;
68866;SDS011;56451;44.804;20.476;2023-05-29T08:44:58;9.43;;;7.07;;
68866;SDS011;56451;44.804;20.476;2023-05-29T08:47:32;8.48;;;6.90;;
68866;SDS011;56451;44.804;20.476;2023-05-29T08:50:00;8.38;;;7.38;;
68866;SDS011;56451;44.804;20.476;2023-05-29T09:00:29;10.10;;;6.90;;
68866;SDS011;56451;44.804;20.476;2023-05-29T09:02:57;9.25;;;8.15;;
68866;SDS011;56451;44.804;20.476;2023-05-29T09:05:25;9.55;;;7.53;;
68866;SDS011;56451;44.804;20.476;2023-05-29T09:07:55;10.33;;;6.10;;
68866;SDS011;56451;44.804;20.476;2023-05-29T09:10:22;10.77;;;7.00;;
68866;SDS011;56451;44.804;20.476;2023-05-29T09:12:51;13.90;;;7.25;;
68866;SDS011;56451;44.804;20.476;2023-05-29T09:15:19;10.10;;;6.65;;
68866;SDS011;56451;44.804;20.476;2023-05-29T09:20:21;8.80;;;6.77;;
68866;SDS011;56451;44.804;20.476;2023-05-29T09:22:59;9.30;;;6.57;;
68866;SDS011;56451;44.804;20.476;2023-05-29T09:25:27;10.10;;;6.65;;
68866;SDS011;56451;44.804;20.476;2023-05-29T09:28:00;9.60;;;7.00;;
68866;SDS011;56451;44.804;20.476;2023-05-29T09:30:39;8.40;;;6.35;;
68866;SDS011;56451;44.804;20.476;2023-05-29T09:33:15;10.73;;;7.10;;
68866;SDS011;56451;44.804;20.476;2023-05-29T09:35:49;8.57;;;6.95;;
68866;SDS011;56451;44.804;20.476;2023-05-29T09:38:16;8.20;;;6.35;;
68866;SDS011;56451;44.804;20.476;2023-05-29T09:40:44;10.88;;;6.38;;
68866;SDS011;56451;44.804;20.476;2023-05-29T09:43:16;11.40;;;6.78;;
68866;SDS011;56451;44.804;20.476;2023-05-29T09:45:44;8.87;;;6.33;;
68866;SDS011;56451;44.804;20.476;2023-05-29T09:48:15;8.10;;;5.80;;
68866;SDS011;56451;44.804;20.476;2023-05-29T09:50:48;8.80;;;5.80;;
68866;SDS011;56451;44.804;20.476;2023-05-29T09:53:18;12.07;;;6.10;;
68866;SDS011;56451;44.804;20.476;2023-05-29T09:55:47;7.28;;;5.72;;
68866;SDS011;56451;44.804;20.476;2023-05-29T09:58:17;5.97;;;5.37;;
68866;SDS011;56451;44.804;20.476;2023-05-29T10:00:44;8.82;;;5.88;;
68866;SDS011;56451;44.804;20.476;2023-05-29T10:03:11;10.02;;;5.70;;
68866;SDS011;56451;44.804;20.476;2023-05-29T10:05:41;8.20;;;5.40;;
68866;SDS011;56451;44.804;20.476;2023-05-29T10:08:12;8.43;;;5.20;;
68866;SDS011;56451;44.804;20.476;2023-05-29T10:10:42;9.27;;;5.87;;
68866;SDS011;56451;44.804;20.476;2023-05-29T10:13:12;8.05;;;5.75;;
68866;SDS011;56451;44.804;20.476;2023-05-29T10:15:43;7.25;;;5.25;;
68866;SDS011;56451;44.804;20.476;2023-05-29T10:20:40;7.10;;;5.35;;
68866;SDS011;56451;44.804;20.476;2023-05-29T10:23:10;8.57;;;5.20;;
68866;SDS011;56451;44.804;20.476;2023-05-29T10:25:38;7.43;;;5.18;;
68866;SDS011;56451;44.804;20.476;2023-05-29T10:28:07;6.80;;;4.93;;
68866;SDS011;56451;44.804;20.476;2023-05-29T10:30:47;5.95;;;4.88;;
68866;SDS011;56451;44.804;20.476;2023-05-29T10:33:30;9.20;;;5.78;;
68866;SDS011;56451;44.804;20.476;2023-05-29T10:36:14;7.90;;;5.93;;
68866;SDS011;56451;44.804;20.476;2023-05-29T10:38:44;8.73;;;5.60;;
68866;SDS011;56451;44.804;20.476;2023-05-29T10:43:53;8.95;;;5.80;;
68866;SDS011;56451;44.804;20.476;2023-05-29T10:46:21;11.90;;;5.57;;
68866;SDS011;56451;44.804;20.476;2023-05-29T10:48:51;8.57;;;5.93;;
68866;SDS011;56451;44.804;20.476;2023-05-29T10:51:24;7.97;;;5.57;;
68866;SDS011;56451;44.804;20.476;2023-05-29T10:53:52;7.75;;;5.60;;
68866;SDS011;56451;44.804;20.476;2023-05-29T10:56:22;10.25;;;5.32;;
68866;SDS011;56451;44.804;20.476;2023-05-29T10:58:54;8.23;;;6.00;;
68866;SDS011;56451;44.804;20.476;2023-05-29T11:01:23;12.20;;;6.20;;
68866;SDS011;56451;44.804;20.476;2023-05-29T11:06:41;9.38;;;5.70;;
68866;SDS011;56451;44.804;20.476;2023-05-29T11:15:11;6.40;;;5.50;;
68866;SDS011;56451;44.804;20.476;2023-05-29T11:20:16;9.25;;;6.00;;
68866;SDS011;56451;44.804;20.476;2023-05-29T11:25:26;7.30;;;5.95;;
68866;SDS011;56451;44.804;20.476;2023-05-29T11:27:55;7.27;;;5.93;;
68866;SDS011;56451;44.804;20.476;2023-05-29T11:30:23;9.90;;;6.20;;
68866;SDS011;56451;44.804;20.476;2023-05-29T11:32:50;7.93;;;6.22;;
68866;SDS011;56451;44.804;20.476;2023-05-29T11:35:23;7.07;;;6.00;;
68866;SDS011;56451;44.804;20.476;2023-05-29T11:37:51;10.45;;;6.03;;
68866;SDS011;56451;44.804;20.476;2023-05-29T11:40:19;7.40;;;5.83;;
68866;SDS011;56451;44.804;20.476;2023-05-29T11:42:46;7.75;;;5.50;;
68866;SDS011;56451;44.804;20.476;2023-05-29T11:45:18;10.13;;;6.55;;
68866;SDS011;56451;44.804;20.476;2023-05-29T11:47:56;7.35;;;6.38;;
68866;SDS011;56451;44.804;20.476;2023-05-29T11:50:26;8.50;;;6.03;;
68866;SDS011;56451;44.804;20.476;2023-05-29T11:52:55;6.63;;;5.60;;
68866;SDS011;56451;44.804;20.476;2023-05-29T11:55:23;8.32;;;6.40;;
68866;SDS011;56451;44.804;20.476;2023-05-29T11:57:51;7.25;;;6.55;;
68866;SDS011;56451;44.804;20.476;2023-05-29T12:00:22;9.00;;;6.32;;
68866;SDS011;56451;44.804;20.476;2023-05-29T12:02:48;7.40;;;6.38;;
68866;SDS011;56451;44.804;20.476;2023-05-29T12:05:16;6.90;;;6.20;;
68866;SDS011;56451;44.804;20.476;2023-05-29T12:07:55;9.95;;;5.93;;
68866;SDS011;56451;44.804;20.476;2023-05-29T12:10:22;6.95;;;6.13;;
68866;SDS011;56451;44.804;20.476;2023-05-29T12:12:53;9.48;;;6.00;;
68866;SDS011;56451;44.804;20.476;2023-05-29T12:15:22;6.25;;;5.40;;
68866;SDS011;56451;44.804;20.476;2023-05-29T12:17:49;11.03;;;6.10;;
68866;SDS011;56451;44.804;20.476;2023-05-29T12:20:17;8.38;;;6.20;;
68866;SDS011;56451;44.804;20.476;2023-05-29T12:22:44;10.25;;;4.80;;
68866;SDS011;56451;44.804;20.476;2023-05-29T12:25:15;6.50;;;4.78;;
68866;SDS011;56451;44.804;20.476;2023-05-29T12:27:45;8.57;;;4.05;;
68866;SDS011;56451;44.804;20.476;2023-05-29T12:30:14;6.67;;;4.07;;
68866;SDS011;56451;44.804;20.476;2023-05-29T12:32:45;6.68;;;4.28;;
68866;SDS011;56451;44.804;20.476;2023-05-29T12:35:20;9.35;;;3.80;;
68866;SDS011;56451;44.804;20.476;2023-05-29T12:38:00;4.55;;;3.15;;
68866;SDS011;56451;44.804;20.476;2023-05-29T12:40:29;5.60;;;3.20;;
68866;SDS011;56451;44.804;20.476;2023-05-29T12:43:00;4.83;;;3.23;;
68866;SDS011;56451;44.804;20.476;2023-05-29T12:45:29;4.78;;;2.92;;
68866;SDS011;56451;44.804;20.476;2023-05-29T12:47:57;5.50;;;3.28;;
68866;SDS011;56451;44.804;20.476;2023-05-29T12:50:29;7.68;;;3.63;;
68866;SDS011;56451;44.804;20.476;2023-05-29T12:53:09;4.47;;;2.95;;
68866;SDS011;56451;44.804;20.476;2023-05-29T12:55:37;5.17;;;3.00;;
68866;SDS011;56451;44.804;20.476;2023-05-29T12:58:06;4.10;;;2.70;;
68866;SDS011;56451;44.804;20.476;2023-05-29T13:00:34;5.43;;;2.95;;
68866;SDS011;56451;44.804;20.476;2023-05-29T13:03:02;4.00;;;2.60;;
68866;SDS011;56451;44.804;20.476;2023-05-29T13:05:28;5.15;;;3.40;;
68866;SDS011;56451;44.804;20.476;2023-05-29T13:07:55;6.03;;;2.97;;
68866;SDS011;56451;44.804;20.476;2023-05-29T13:10:24;7.15;;;2.90;;
68866;SDS011;56451;44.804;20.476;2023-05-29T13:12:52;9.55;;;2.90;;
68866;SDS011;56451;44.804;20.476;2023-05-29T13:15:21;3.38;;;2.80;;
68866;SDS011;56451;44.804;20.476;2023-05-29T13:17:48;4.85;;;2.90;;
68866;SDS011;56451;44.804;20.476;2023-05-29T13:20:16;7.70;;;3.00;;
68866;SDS011;56451;44.804;20.476;2023-05-29T13:22:44;6.88;;;3.20;;
68866;SDS011;56451;44.804;20.476;2023-05-29T13:25:12;5.65;;;2.88;;
68866;SDS011;56451;44.804;20.476;2023-05-29T13:27:41;5.35;;;2.40;;
68866;SDS011;56451;44.804;20.476;2023-05-29T13:30:10;6.45;;;3.00;;
68866;SDS011;56451;44.804;20.476;2023-05-29T13:32:38;7.03;;;2.73;;
68866;SDS011;56451;44.804;20.476;2023-05-29T13:35:05;3.63;;;2.60;;
68866;SDS011;56451;44.804;20.476;2023-05-29T13:37:31;4.22;;;2.25;;
68866;SDS011;56451;44.804;20.476;2023-05-29T13:40:00;4.63;;;2.80;;
68866;SDS011;56451;44.804;20.476;2023-05-29T13:42:26;5.65;;;2.75;;
68866;SDS011;56451;44.804;20.476;2023-05-29T13:44:53;6.43;;;2.30;;
68866;SDS011;56451;44.804;20.476;2023-05-29T13:47:20;4.03;;;2.63;;
68866;SDS011;56451;44.804;20.476;2023-05-29T13:49:46;5.15;;;3.28;;
68866;SDS011;56451;44.804;20.476;2023-05-29T13:52:13;5.55;;;3.15;;
68866;SDS011;56451;44.804;20.476;2023-05-29T13:54:39;5.00;;;3.00;;
68866;SDS011;56451;44.804;20.476;2023-05-29T13:57:06;8.83;;;3.57;;
68866;SDS011;56451;44.804;20.476;2023-05-29T13:59:33;6.38;;;3.10;;
68866;SDS011;56451;44.804;20.476;2023-05-29T14:02:01;7.03;;;4.97;;
68866;SDS011;56451;44.804;20.476;2023-05-29T14:04:32;4.50;;;4.00;;
68866;SDS011;56451;44.804;20.476;2023-05-29T14:07:01;4.88;;;2.95;;
68866;SDS011;56451;44.804;20.476;2023-05-29T14:09:28;4.60;;;3.30;;
68866;SDS011;56451;44.804;20.476;2023-05-29T14:11:55;5.63;;;2.70;;
68866;SDS011;56451;44.804;20.476;2023-05-29T14:14:26;4.93;;;2.70;;
68866;SDS011;56451;44.804;20.476;2023-05-29T14:16:53;4.65;;;3.10;;
68866;SDS011;56451;44.804;20.476;2023-05-29T14:19:27;4.65;;;2.75;;
68866;SDS011;56451;44.804;20.476;2023-05-29T14:21:55;5.87;;;3.93;;
68866;SDS011;56451;44.804;20.476;2023-05-29T14:24:23;4.68;;;3.38;;
68866;SDS011;56451;44.804;20.476;2023-05-29T14:27:36;7.60;;;4.18;;
68866;SDS011;56451;44.804;20.476;2023-05-29T14:30:10;6.68;;;4.15;;
68866;SDS011;56451;44.804;20.476;2023-05-29T14:32:56;6.65;;;4.53;;
68866;SDS011;56451;44.804;20.476;2023-05-29T14:35:28;6.93;;;4.67;;
68866;SDS011;56451;44.804;20.476;2023-05-29T14:38:05;5.75;;;3.28;;
68866;SDS011;56451;44.804;20.476;2023-05-29T14:40:31;6.30;;;3.40;;
68866;SDS011;56451;44.804;20.476;2023-05-29T14:42:59;7.15;;;4.18;;
68866;SDS011;56451;44.804;20.476;2023-05-29T14:45:26;5.57;;;3.92;;
68866;SDS011;56451;44.804;20.476;2023-05-29T14:47:52;8.70;;;4.27;;
68866;SDS011;56451;44.804;20.476;2023-05-29T14:50:19;5.43;;;4.15;;
68866;SDS011;56451;44.804;20.476;2023-05-29T14:52:46;7.22;;;4.05;;
68866;SDS011;56451;44.804;20.476;2023-05-29T14:55:13;5.10;;;3.72;;
68866;SDS011;56451;44.804;20.476;2023-05-29T14:57:43;7.63;;;4.10;;
68866;SDS011;56451;44.804;20.476;2023-05-29T15:00:09;7.60;;;4.40;;
68866;SDS011;56451;44.804;20.476;2023-05-29T15:02:36;7.47;;;4.38;;
68866;SDS011;56451;44.804;20.476;2023-05-29T15:05:05;6.53;;;3.80;;
68866;SDS011;56451;44.804;20.476;2023-05-29T15:07:36;5.82;;;3.90;;
68866;SDS011;56451;44.804;20.476;2023-05-29T15:10:03;6.72;;;4.15;;
68866;SDS011;56451;44.804;20.476;2023-05-29T15:12:31;7.97;;;4.10;;
68866;SDS011;56451;44.804;20.476;2023-05-29T15:14:59;5.03;;;3.85;;
68866;SDS011;56451;44.804;20.476;2023-05-29T15:17:25;5.47;;;3.92;;
68866;SDS011;56451;44.804;20.476;2023-05-29T15:19:52;6.03;;;4.05;;